createdAt,value
2022-08-29T00:00:22.109Z,100357.66
2022-08-29T00:05:25.625Z,100354.06
2022-08-29T00:10:27.380Z,100357.06
2022-08-29T00:15:29.197Z,100363.88
2022-08-29T00:20:34.570Z,100370.94
2022-08-29T00:25:36.194Z,100367.34
2022-08-29T00:30:37.796Z,100367.97
2022-08-29T00:35:40.436Z,100376.69
2022-08-29T00:40:51.763Z,100381.66
2022-08-29T00:46:17.645Z,100374.78
2022-08-29T00:51:19.116Z,100374.16
2022-08-29T00:56:20.558Z,100380.00
2022-08-29T01:01:22.979Z,100384.06
2022-08-29T01:06:25.676Z,100386.31
2022-08-29T01:11:47.421Z,100390.13
2022-08-29T01:16:48.950Z,100383.22
2022-08-29T01:22:01.660Z,100389.63
2022-08-29T01:27:03.140Z,100393.44
2022-08-29T01:32:05.212Z,100391.22
2022-08-29T01:37:07.676Z,100395.88
2022-08-29T01:42:11.805Z,100392.28
2022-08-29T01:47:13.209Z,100387.63
2022-08-29T01:52:16.732Z,100395.59
2022-08-29T01:57:18.930Z,100402.41
2022-08-29T02:02:22.355Z,100404.31
2022-08-29T02:07:25.232Z,100400.75
2022-08-29T02:12:26.644Z,100405.16
2022-08-29T02:17:29.520Z,100400.41
2022-08-29T02:22:31.913Z,100402.69
2022-08-29T02:27:34.832Z,100399.94
2022-08-29T02:32:36.229Z,100399.44
2022-08-29T02:37:37.633Z,100401.56
2022-08-29T02:42:39.041Z,100397.78
2022-08-29T02:47:41.753Z,100403.97
2022-08-29T02:52:43.388Z,100402.91
2022-08-29T02:57:45.189Z,100403.13
2022-08-29T03:02:47.260Z,100404.47
2022-08-29T03:07:51.003Z,100408.63
2022-08-29T03:12:52.572Z,100408.00
2022-08-29T03:17:54.536Z,100406.72
2022-08-29T03:22:56.194Z,100406.94
2022-08-29T03:27:59.514Z,100409.47
2022-08-29T03:33:02.314Z,100398.72
2022-08-29T03:38:03.726Z,100404.19
2022-08-29T03:43:05.413Z,100413.50
2022-08-29T03:48:06.817Z,100419.22
2022-08-29T03:53:08.218Z,100421.41
2022-08-29T03:58:09.644Z,100430.69
2022-08-29T04:03:11.114Z,100429.94
2022-08-29T04:08:12.581Z,100438.16
2022-08-29T04:13:14.658Z,100438.66
2022-08-29T04:18:21.715Z,100429.13
2022-08-29T04:23:23.988Z,100438.91
2022-08-29T04:28:25.440Z,100427.94
2022-08-29T04:33:27.668Z,100432.38
2022-08-29T04:38:29.069Z,100439.97
2022-08-29T04:43:30.517Z,100449.03
2022-08-29T04:48:31.914Z,100446.88
2022-08-29T04:53:33.321Z,100457.25
2022-08-29T04:58:35.512Z,100460.00
2022-08-29T05:03:37.475Z,100470.59
2022-08-29T05:08:39.848Z,100472.63
2022-08-29T05:13:42.630Z,100472.88
2022-08-29T05:18:44.265Z,100479.75
2022-08-29T05:23:45.692Z,100482.19
2022-08-29T05:28:47.163Z,100477.75
2022-08-29T05:33:48.596Z,100480.03
2022-08-29T05:38:50.040Z,100485.72
2022-08-29T05:43:51.489Z,100478.59
2022-08-29T05:48:53.041Z,100484.66
2022-08-29T05:53:55.600Z,100479.94
2022-08-29T05:58:57.022Z,100484.31
2022-08-29T06:03:58.992Z,100491.56
2022-08-29T06:09:00.516Z,100491.81
2022-08-29T06:14:02.112Z,100503.34
2022-08-29T06:19:03.555Z,100510.38
2022-08-29T06:24:05.328Z,100504.09
2022-08-29T06:29:07.576Z,100509.31
2022-08-29T06:34:09.609Z,100521.50
2022-08-29T06:39:11.139Z,100516.81
2022-08-29T06:44:12.573Z,100517.22
2022-08-29T06:49:14.728Z,100512.22
2022-08-29T06:54:16.745Z,100524.56
2022-08-29T06:59:19.412Z,100537.31
2022-08-29T07:04:21.194Z,100537.03
2022-08-29T07:09:22.632Z,100526.78
2022-08-29T07:14:24.100Z,100532.66
2022-08-29T07:19:25.512Z,100526.06
2022-08-29T07:24:26.913Z,100543.13
2022-08-29T07:29:28.331Z,100537.78
2022-08-29T07:34:29.866Z,100534.72
2022-08-29T07:39:31.428Z,100524.19
2022-08-29T07:44:34.607Z,100527.47
2022-08-29T07:49:41.563Z,100533.81
2022-08-29T07:54:43.387Z,100540.53
2022-08-29T07:59:44.829Z,100541.25
2022-08-29T08:04:46.249Z,100534.63
2022-08-29T08:09:48.361Z,100537.94
2022-08-29T08:14:49.812Z,100535.47
2022-08-29T08:19:51.216Z,100545.81
2022-08-29T08:24:52.628Z,100538.53
2022-08-29T08:29:54.036Z,100551.75
2022-08-29T08:34:56.993Z,100545.91
2022-08-29T08:39:58.749Z,100547.28
2022-08-29T08:45:06.073Z,100549.44
2022-08-29T08:50:16.235Z,100553.78
2022-08-29T08:55:22.861Z,100545.63
2022-08-29T09:00:24.301Z,100562.47
2022-08-29T09:05:36.711Z,100567.22
2022-08-29T09:11:03.932Z,100559.34
2022-08-29T09:16:11.284Z,100559.78
2022-08-29T09:21:39.912Z,100571.84
2022-08-29T09:26:42.112Z,100557.44
2022-08-29T09:31:43.792Z,100562.56
2022-08-29T09:36:47.535Z,100555.16
2022-08-29T09:41:53.833Z,100568.59
2022-08-29T09:47:05.376Z,100569.22
2022-08-29T09:52:25.061Z,100557.13
2022-08-29T09:57:27.407Z,100548.41
2022-08-29T10:02:49.839Z,100558.47
2022-08-29T10:07:52.248Z,100546.25
2022-08-29T10:13:03.686Z,100540.91
2022-08-29T10:18:23.770Z,100551.59
2022-08-29T10:23:37.356Z,100539.34
2022-08-29T10:28:48.064Z,100533.88
2022-08-29T10:33:56.634Z,100547.50
2022-08-29T10:39:00.951Z,100546.75
2022-08-29T10:44:28.073Z,100545.00
2022-08-29T10:50:03.348Z,100549.31
2022-08-29T10:55:47.273Z,100539.03
2022-08-29T11:00:53.022Z,100528.19
2022-08-29T11:06:06.765Z,100542.50
2022-08-29T11:11:08.901Z,100537.00
2022-08-29T11:16:14.884Z,100536.13
2022-08-29T11:21:16.356Z,100524.03
2022-08-29T11:26:22.420Z,100515.72
2022-08-29T11:31:39.008Z,100515.22
2022-08-29T11:36:59.076Z,100515.91
2022-08-29T11:42:03.846Z,100520.19
2022-08-29T11:47:40.750Z,100528.59
2022-08-29T11:52:56.624Z,100506.63
2022-08-29T11:58:03.843Z,100512.44
2022-08-29T12:03:35.929Z,100516.78
2022-08-29T12:08:41.269Z,100518.34
2022-08-29T12:13:48.988Z,100513.13
2022-08-29T12:18:52.041Z,100520.19
2022-08-29T12:23:53.446Z,100512.78
2022-08-29T12:28:58.657Z,100515.28
2022-08-29T12:34:18.456Z,100514.75
2022-08-29T12:39:28.223Z,100512.28
2022-08-29T12:44:40.772Z,100500.03
2022-08-29T12:49:53.132Z,100494.22
2022-08-29T12:54:56.571Z,100493.38
2022-08-29T12:59:58.498Z,100482.13
2022-08-29T13:05:00.217Z,100473.94
2022-08-29T13:10:01.652Z,100471.53
2022-08-29T13:15:18.861Z,100470.63
2022-08-29T13:20:38.617Z,100474.25
2022-08-29T13:25:44.913Z,100477.09
2022-08-29T13:31:17.674Z,100458.56
2022-08-29T13:36:46.861Z,100468.97
2022-08-29T13:41:57.219Z,100456.50
2022-08-29T13:47:00.761Z,100455.50
2022-08-29T13:52:02.873Z,100463.13
2022-08-29T13:57:07.321Z,100449.09
2022-08-29T14:02:10.790Z,100445.97
2022-08-29T14:07:16.567Z,100454.72
2022-08-29T14:12:18.132Z,100451.53
2022-08-29T14:17:19.680Z,100443.22
2022-08-29T14:22:21.089Z,100448.34
2022-08-29T14:27:22.575Z,100438.75
2022-08-29T14:32:24.187Z,100441.03
2022-08-29T14:37:28.392Z,100435.16
2022-08-29T14:42:29.846Z,100433.38
2022-08-29T14:47:31.256Z,100438.78
2022-08-29T14:52:32.685Z,100445.19
2022-08-29T14:57:35.776Z,100430.53
2022-08-29T15:02:37.257Z,100426.06
2022-08-29T15:07:39.165Z,100421.91
2022-08-29T15:12:40.576Z,100415.31
2022-08-29T15:17:43.470Z,100411.44
2022-08-29T15:22:44.902Z,100407.84
2022-08-29T15:27:47.458Z,100401.44
2022-08-29T15:32:49.128Z,100400.03
2022-08-29T15:37:50.772Z,100411.84
2022-08-29T15:42:52.208Z,100409.94
2022-08-29T15:47:54.115Z,100403.25
2022-08-29T15:52:55.866Z,100405.84
2022-08-29T15:57:57.594Z,100397.28
2022-08-29T16:03:00.723Z,100390.44
2022-08-29T16:08:02.429Z,100395.25
2022-08-29T16:13:03.888Z,100392.56
2022-08-29T16:18:05.344Z,100386.75
2022-08-29T16:23:06.760Z,100381.03
2022-08-29T16:28:08.332Z,100369.84
2022-08-29T16:33:09.817Z,100372.53
2022-08-29T16:38:11.352Z,100376.53
2022-08-29T16:43:12.846Z,100363.16
2022-08-29T16:48:15.754Z,100369.22
2022-08-29T16:53:19.205Z,100372.13
2022-08-29T16:58:39.141Z,100377.00
2022-08-29T17:03:40.544Z,100380.75
2022-08-29T17:08:41.917Z,100384.22
2022-08-29T17:13:43.285Z,100383.16
2022-08-29T17:18:44.865Z,100385.84
2022-08-29T17:23:47.400Z,100385.69
2022-08-29T17:28:48.861Z,100391.22
2022-08-29T17:33:50.318Z,100385.81
2022-08-29T17:38:51.728Z,100401.31
2022-08-29T17:43:53.677Z,100403.72
2022-08-29T17:48:55.088Z,100399.44
2022-08-29T17:53:56.504Z,100396.19
2022-08-29T17:58:58.469Z,100396.94
2022-08-29T18:03:59.873Z,100401.03
2022-08-29T18:09:01.269Z,100403.94
2022-08-29T18:14:02.664Z,100409.44
2022-08-29T18:19:04.236Z,100414.34
2022-08-29T18:24:06.489Z,100422.00
2022-08-29T18:29:08.265Z,100421.16
2022-08-29T18:34:10.837Z,100438.97
2022-08-29T18:39:12.676Z,100433.38
2022-08-29T18:44:14.093Z,100440.50
2022-08-29T18:49:16.177Z,100439.94
2022-08-29T18:54:19.318Z,100446.50
2022-08-29T18:59:23.407Z,100446.41
2022-08-29T19:04:25.505Z,100452.75
2022-08-29T19:09:27.014Z,100460.97
2022-08-29T19:14:28.425Z,100467.19
2022-08-29T19:19:52.766Z,100462.19
2022-08-29T19:24:56.548Z,100468.53
2022-08-29T19:30:00.284Z,100469.13
2022-08-29T19:35:07.631Z,100466.88
2022-08-29T19:40:10.234Z,100471.03
2022-08-29T19:45:12.083Z,100467.13
2022-08-29T19:50:13.781Z,100463.53
2022-08-29T19:55:17.481Z,100472.53
2022-08-29T20:00:23.026Z,100470.13
2022-08-29T20:05:24.300Z,100473.34
2022-08-29T20:10:27.001Z,100471.94
2022-08-29T20:15:30.653Z,100480.06
2022-08-29T20:20:35.795Z,100480.75
2022-08-29T20:25:37.198Z,100471.53
2022-08-29T20:30:38.657Z,100474.25
2022-08-29T20:35:58.341Z,100486.03
2022-08-29T20:41:00.373Z,100474.75
2022-08-29T20:46:08.886Z,100477.09
2022-08-29T20:51:10.464Z,100487.78
2022-08-29T20:56:12.761Z,100491.34
2022-08-29T21:01:14.257Z,100488.69
2022-08-29T21:06:18.351Z,100488.69
2022-08-29T21:11:20.643Z,100492.81
2022-08-29T21:16:22.489Z,100496.75
2022-08-29T21:21:25.066Z,100504.38
2022-08-29T21:26:26.656Z,100510.34
2022-08-29T21:31:28.115Z,100523.25
2022-08-29T21:36:29.572Z,100522.41
2022-08-29T21:41:31.112Z,100526.78
2022-08-29T21:46:33.866Z,100522.88
2022-08-29T21:51:36.973Z,100517.06
2022-08-29T21:56:38.414Z,100528.94
2022-08-29T22:01:39.986Z,100522.88
2022-08-29T22:06:42.251Z,100522.88
2022-08-29T22:11:45.096Z,100521.06
2022-08-29T22:16:46.496Z,100530.00
2022-08-29T22:21:51.671Z,100525.63
2022-08-29T22:26:53.081Z,100519.78
2022-08-29T22:31:55.981Z,100523.88
2022-08-29T22:36:57.445Z,100522.19
2022-08-29T22:41:58.844Z,100525.41
2022-08-29T22:47:00.248Z,100521.69
2022-08-29T22:52:03.650Z,100532.66
2022-08-29T22:57:10.148Z,100528.94
2022-08-29T23:02:11.852Z,100527.19
2022-08-29T23:07:13.248Z,100526.03
2022-08-29T23:12:14.720Z,100518.59
2022-08-29T23:17:16.340Z,100526.84
2022-08-29T23:22:17.865Z,100528.16
2022-08-29T23:27:20.396Z,100530.66
2022-08-29T23:32:21.816Z,100526.03
2022-08-29T23:37:23.634Z,100523.03
2022-08-29T23:42:25.066Z,100512.53
2022-08-29T23:47:26.466Z,100511.34
2022-08-29T23:52:27.872Z,100512.16
2022-08-29T23:57:29.276Z,100512.31
